www.cux-wetter.de
Wetterdaten: Woche 07.07.14 - 13.07.14 (KW28)
Datum Zeit Temp. A. Feuchte A. Luftdruck Regen Wind Richtung Sonnenschein Solar Taupunkt Windchill Windben
07.07.2014 00:00 19,4 C 85 % 1007,0 hPa 9,0 l/m 20,0 km/h (4 Bft) S-SW 0,00 h 0 W/m 16,8 C 15,8 C 20,0 km/h (4 Bft)
07.07.2014 01:00 19,4 C 85 % 1007,0 hPa 1,8 l/m 14,3 km/h (3 Bft) SW 0,00 h 0 W/m 16,9 C 16,7 C 14,3 km/h (3 Bft)
07.07.2014 02:00 19,1 C 87 % 1007,0 hPa 0,3 l/m 17,8 km/h (3 Bft) W 0,00 h 0 W/m 16,9 C 15,6 C 17,8 km/h (3 Bft)
07.07.2014 03:00 18,8 C 89 % 1008,3 hPa 0,0 l/m 21,7 km/h (4 Bft) W-NW 0,00 h 0 W/m 16,9 C 14,3 C 21,7 km/h (4 Bft)
07.07.2014 04:00 17,7 C 86 % 1009,5 hPa 0,0 l/m 25,1 km/h (4 Bft) NW 0,00 h 0 W/m 15,3 C 12,3 C 25,1 km/h (4 Bft)
07.07.2014 05:00 17,6 C 83 % 1011,0 hPa 0,0 l/m 25,6 km/h (4 Bft) NW 0,00 h 0 W/m 14,6 C 12,0 C 25,6 km/h (4 Bft)
07.07.2014 06:00 17,7 C 82 % 1011,8 hPa 0,0 l/m 23,5 km/h (4 Bft) W-NW 0,00 h 0 W/m 14,5 C 12,6 C 23,5 km/h (4 Bft)
07.07.2014 07:00 17,9 C 83 % 1012,5 hPa 0,0 l/m 18,0 km/h (3 Bft) W-NW 0,00 h 0 W/m 15,0 C 14,0 C 18,0 km/h (3 Bft)
07.07.2014 08:00 18,1 C 82 % 1013,5 hPa 0,0 l/m 19,0 km/h (3 Bft) W 0,00 h 0 W/m 15,0 C 14,0 C 19,0 km/h (3 Bft)
07.07.2014 09:00 18,6 C 82 % 1014,3 hPa 0,0 l/m 21,2 km/h (4 Bft) W 0,00 h 0 W/m 15,4 C 14,2 C 21,2 km/h (4 Bft)
07.07.2014 10:00 19,8 C 78 % 1015,0 hPa 0,0 l/m 20,3 km/h (4 Bft) W 0,00 h 0 W/m 15,8 C 15,9 C 20,3 km/h (4 Bft)
07.07.2014 11:00 21,5 C 72 % 1015,8 hPa 0,0 l/m 18,0 km/h (3 Bft) W-NW 0,00 h 0 W/m 16,3 C 18,5 C 18,0 km/h (3 Bft)
07.07.2014 12:00 22,8 C 66 % 1016,5 hPa 0,0 l/m 16,8 km/h (3 Bft) W-NW 0,00 h 0 W/m 16,2 C 20,4 C 16,8 km/h (3 Bft)
07.07.2014 13:00 22,7 C 63 % 1016,5 hPa 0,0 l/m 13,4 km/h (3 Bft) NW 0,00 h 0 W/m 15,3 C 20,8 C 13,4 km/h (3 Bft)
07.07.2014 14:00 22,5 C 64 % 1016,5 hPa 0,0 l/m 11,6 km/h (2 Bft) N 0,00 h 0 W/m 15,4 C 21,0 C 11,6 km/h (2 Bft)
07.07.2014 15:00 22,5 C 66 % 1016,5 hPa 0,0 l/m 12,0 km/h (2 Bft) N 0,00 h 0 W/m 15,9 C 21,0 C 12,0 km/h (2 Bft)
07.07.2014 16:00 23,0 C 63 % 1016,5 hPa 0,0 l/m 11,1 km/h (2 Bft) NO 0,00 h 0 W/m 15,5 C 21,7 C 11,1 km/h (2 Bft)
07.07.2014 17:00 22,5 C 61 % 1016,5 hPa 0,0 l/m 10,3 km/h (2 Bft) N-NO 0,00 h 0 W/m 14,6 C 21,3 C 10,3 km/h (2 Bft)
07.07.2014 18:00 21,7 C 66 % 1016,5 hPa 0,0 l/m 12,6 km/h (3 Bft) N-NO 0,00 h 0 W/m 15,0 C 19,8 C 12,6 km/h (3 Bft)
07.07.2014 19:00 20,8 C 69 % 1016,5 hPa 0,0 l/m 11,5 km/h (2 Bft) NO 0,00 h 0 W/m 14,9 C 19,2 C 11,5 km/h (2 Bft)
07.07.2014 20:00 20,2 C 72 % 1016,5 hPa 0,0 l/m 9,9 km/h (2 Bft) NO 0,00 h 0 W/m 14,9 C 18,9 C 9,9 km/h (2 Bft)
07.07.2014 21:00 19,7 C 73 % 1016,5 hPa 0,0 l/m 9,8 km/h (2 Bft) N-NO 0,00 h 0 W/m 14,6 C 18,4 C 9,8 km/h (2 Bft)
07.07.2014 22:00 19,3 C 73 % 1016,5 hPa 0,0 l/m 7,0 km/h (2 Bft) N-NO 0,00 h 0 W/m 14,3 C 18,9 C 7,0 km/h (2 Bft)
07.07.2014 23:00 19,1 C 75 % 1016,0 hPa 0,0 l/m 8,4 km/h (2 Bft) N-NO 0,00 h 0 W/m 14,6 C 18,2 C 8,4 km/h (2 Bft)
08.07.2014 00:00 18,6 C 77 % 1015,5 hPa 0,0 l/m 5,8 km/h (2 Bft) N-NO 0,00 h 0 W/m 14,4 C 17,9 C 5,8 km/h (2 Bft)
08.07.2014 01:00 18,4 C 76 % 1015,5 hPa 0,0 l/m 7,1 km/h (2 Bft) N-NO 0,00 h 0 W/m 14,0 C 17,9 C 7,1 km/h (2 Bft)
08.07.2014 02:00 17,7 C 77 % 1015,0 hPa 0,0 l/m 2,0 km/h (1 Bft) N-NO 0,00 h 0 W/m 13,6 C 17,7 C 2,0 km/h (1 Bft)
08.07.2014 03:00 17,3 C 79 % 1014,3 hPa 0,0 l/m 4,7 km/h (1 Bft) N-NO 0,00 h 0 W/m 13,7 C 16,9 C 4,7 km/h (1 Bft)
08.07.2014 04:00 17,1 C 80 % 1013,5 hPa 0,0 l/m 8,8 km/h (2 Bft) O 0,00 h 0 W/m 13,7 C 15,9 C 8,8 km/h (2 Bft)
08.07.2014 05:00 17,0 C 81 % 1012,8 hPa 0,0 l/m 8,4 km/h (2 Bft) N 0,00 h 0 W/m 13,7 C 16,0 C 8,4 km/h (2 Bft)
08.07.2014 06:00 17,0 C 83 % 1012,5 hPa 0,0 l/m 8,9 km/h (2 Bft) N-NO 0,00 h 0 W/m 14,1 C 15,8 C 8,9 km/h (2 Bft)
08.07.2014 07:00 17,4 C 84 % 1011,8 hPa 0,0 l/m 9,0 km/h (2 Bft) NO 0,00 h 0 W/m 14,7 C 16,1 C 9,0 km/h (2 Bft)
08.07.2014 08:00 18,0 C 83 % 1011,5 hPa 0,0 l/m 16,6 km/h (3 Bft) O-NO 0,00 h 0 W/m 15,0 C 14,4 C 16,6 km/h (3 Bft)
08.07.2014 09:00 18,0 C 83 % 1010,8 hPa 0,0 l/m 15,0 km/h (3 Bft) NO 0,00 h 0 W/m 15,0 C 14,9 C 15,0 km/h (3 Bft)
08.07.2014 10:00 17,9 C 83 % 1010,5 hPa 0,0 l/m 18,8 km/h (3 Bft) N-NO 0,00 h 0 W/m 14,8 C 13,7 C 18,8 km/h (3 Bft)
08.07.2014 11:00 17,5 C 83 % 1009,8 hPa 0,6 l/m 17,5 km/h (3 Bft) NO 0,00 h 0 W/m 14,7 C 13,7 C 17,5 km/h (3 Bft)
08.07.2014 12:00 16,6 C 86 % 1009,3 hPa 2,4 l/m 18,2 km/h (3 Bft) NO 0,00 h 0 W/m 14,3 C 12,3 C 18,2 km/h (3 Bft)
08.07.2014 13:00 16,0 C 88 % 1008,5 hPa 4,8 l/m 20,0 km/h (4 Bft) NO 0,00 h 0 W/m 14,0 C 11,1 C 20,0 km/h (4 Bft)
08.07.2014 14:00 15,9 C 90 % 1007,8 hPa 3,9 l/m 23,3 km/h (4 Bft) O-NO 0,00 h 0 W/m 14,2 C 10,2 C 23,3 km/h (4 Bft)
08.07.2014 15:00 16,0 C 91 % 1007,0 hPa 1,2 l/m 23,3 km/h (4 Bft) NO 0,00 h 0 W/m 14,5 C 10,4 C 23,3 km/h (4 Bft)
08.07.2014 16:00 16,4 C 92 % 1006,5 hPa 0,6 l/m 16,9 km/h (3 Bft) NO 0,00 h 0 W/m 15,0 C 12,3 C 16,9 km/h (3 Bft)
08.07.2014 17:00 17,1 C 92 % 1006,0 hPa 0,0 l/m 16,1 km/h (3 Bft) N-NO 0,00 h 0 W/m 15,8 C 13,5 C 16,1 km/h (3 Bft)
08.07.2014 18:00 17,9 C 92 % 1005,5 hPa 0,0 l/m 13,5 km/h (3 Bft) NO 0,00 h 0 W/m 16,6 C 15,1 C 13,5 km/h (3 Bft)
08.07.2014 19:00 18,2 C 93 % 1005,0 hPa 0,0 l/m 16,1 km/h (3 Bft) N-NO 0,00 h 0 W/m 17,1 C 14,8 C 16,1 km/h (3 Bft)
08.07.2014 20:00 18,2 C 93 % 1004,8 hPa 0,0 l/m 19,8 km/h (3 Bft) N-NO 0,00 h 0 W/m 17,0 C 13,9 C 19,8 km/h (3 Bft)
08.07.2014 21:00 18,1 C 93 % 1005,1 hPa 0,6 l/m 18,0 km/h (3 Bft) N-NO 0,00 h 0 W/m 16,9 C 14,2 C 18,0 km/h (3 Bft)
08.07.2014 22:00 18,0 C 93 % 1004,5 hPa 2,7 l/m 16,8 km/h (3 Bft) N-NO 0,00 h 0 W/m 16,9 C 14,4 C 16,8 km/h (3 Bft)
08.07.2014 23:00 18,3 C 94 % 1004,3 hPa 3,9 l/m 18,0 km/h (3 Bft) N-NO 0,00 h 0 W/m 17,3 C 14,4 C 18,0 km/h (3 Bft)
09.07.2014 00:00 18,5 C 94 % 1003,5 hPa 0,6 l/m 4,9 km/h (1 Bft) N 0,00 h 0 W/m 17,5 C 17,6 C 4,9 km/h (1 Bft)
09.07.2014 01:00 18,4 C 94 % 1003,5 hPa 0,0 l/m 0,0 km/h (0 Bft) N 0,00 h 0 W/m 17,5 C 18,4 C 0,0 km/h (0 Bft)
09.07.2014 02:00 18,2 C 94 % 1003,5 hPa 0,0 l/m 0,0 km/h (0 Bft) N 0,00 h 0 W/m 17,2 C 18,2 C 0,0 km/h (0 Bft)
09.07.2014 03:00 17,8 C 94 % 1003,5 hPa 0,0 l/m 0,0 km/h (0 Bft) N 0,00 h 0 W/m 16,9 C 17,8 C 0,0 km/h (0 Bft)
09.07.2014 04:00 17,9 C 94 % 1003,5 hPa 0,3 l/m 0,0 km/h (0 Bft) N 0,00 h 0 W/m 16,9 C 17,9 C 0,0 km/h (0 Bft)
09.07.2014 05:00 18,2 C 95 % 1003,5 hPa 0,0 l/m 0,8 km/h (0 Bft) N 0,00 h 0 W/m 17,3 C 18,2 C 0,8 km/h (0 Bft)
09.07.2014 06:00 18,3 C 95 % 1003,5 hPa 1,2 l/m 1,1 km/h (1 Bft) N-NO 0,00 h 0 W/m 17,5 C 18,3 C 1,1 km/h (1 Bft)
09.07.2014 07:00 18,7 C 95 % 1003,5 hPa 0,6 l/m 4,8 km/h (1 Bft) NO 0,00 h 0 W/m 17,9 C 18,4 C 4,8 km/h (1 Bft)
09.07.2014 08:00 19,6 C 95 % 1003,5 hPa 0,0 l/m 10,1 km/h (2 Bft) NO 0,00 h 0 W/m 18,8 C 18,2 C 10,1 km/h (2 Bft)
09.07.2014 09:00 20,5 C 95 % 1003,5 hPa 0,0 l/m 8,7 km/h (2 Bft) O 0,00 h 0 W/m 19,7 C 19,7 C 8,7 km/h (2 Bft)
09.07.2014 10:00 21,7 C 95 % 1003,5 hPa 0,0 l/m 8,9 km/h (2 Bft) NO 0,00 h 0 W/m 20,8 C 20,9 C 8,9 km/h (2 Bft)
09.07.2014 11:00 23,9 C 89 % 1003,5 hPa 0,0 l/m 11,1 km/h (2 Bft) NO 0,00 h 0 W/m 22,0 C 22,8 C 11,1 km/h (2 Bft)
09.07.2014 12:00 26,2 C 81 % 1003,5 hPa 0,0 l/m 10,9 km/h (2 Bft) N-NO 0,00 h 0 W/m 22,5 C 25,3 C 10,9 km/h (2 Bft)
09.07.2014 13:00 27,6 C 75 % 1003,5 hPa 0,0 l/m 13,0 km/h (3 Bft) O-NO 0,00 h 0 W/m 22,7 C 26,7 C 13,0 km/h (3 Bft)
09.07.2014 14:00 28,9 C 71 % 1003,3 hPa 0,0 l/m 15,9 km/h (3 Bft) O-NO 0,00 h 0 W/m 23,0 C 27,9 C 15,9 km/h (3 Bft)
09.07.2014 15:00 29,5 C 68 % 1002,5 hPa 0,0 l/m 15,9 km/h (3 Bft) N-NO 0,00 h 0 W/m 23,0 C 28,7 C 15,9 km/h (3 Bft)
09.07.2014 16:00 29,2 C 66 % 1002,5 hPa 0,0 l/m 19,0 km/h (3 Bft) NO 0,00 h 0 W/m 22,2 C 28,1 C 19,0 km/h (3 Bft)
09.07.2014 17:00 28,7 C 65 % 1003,5 hPa 0,0 l/m 17,8 km/h (3 Bft) NO 0,00 h 0 W/m 21,5 C 27,6 C 17,8 km/h (3 Bft)
09.07.2014 18:00 27,8 C 66 % 1004,0 hPa 0,0 l/m 18,6 km/h (3 Bft) O-NO 0,00 h 0 W/m 20,9 C 26,4 C 18,6 km/h (3 Bft)
09.07.2014 19:00 26,4 C 68 % 1005,3 hPa 0,0 l/m 15,3 km/h (3 Bft) O-NO 0,00 h 0 W/m 20,1 C 25,0 C 15,3 km/h (3 Bft)
09.07.2014 20:00 24,9 C 72 % 1006,2 hPa 0,0 l/m 13,2 km/h (3 Bft) S-SO 0,00 h 0 W/m 19,4 C 23,5 C 13,2 km/h (3 Bft)
09.07.2014 21:00 23,7 C 73 % 1006,5 hPa 0,0 l/m 6,3 km/h (2 Bft) O-NO 0,00 h 0 W/m 18,6 C 23,1 C 6,3 km/h (2 Bft)
09.07.2014 22:00 22,4 C 75 % 1006,8 hPa 0,0 l/m 9,9 km/h (2 Bft) O-NO 0,00 h 0 W/m 17,8 C 21,3 C 9,9 km/h (2 Bft)
09.07.2014 23:00 21,5 C 77 % 1006,8 hPa 0,0 l/m 12,4 km/h (2 Bft) NO 0,00 h 0 W/m 17,3 C 19,7 C 12,4 km/h (2 Bft)
10.07.2014 00:00 20,9 C 78 % 1007,3 hPa 0,0 l/m 14,1 km/h (3 Bft) NO 0,00 h 0 W/m 16,8 C 18,5 C 14,1 km/h (3 Bft)
10.07.2014 01:00 20,5 C 78 % 1007,3 hPa 0,0 l/m 16,9 km/h (3 Bft) N-NO 0,00 h 0 W/m 16,5 C 17,4 C 16,9 km/h (3 Bft)
10.07.2014 02:00 20,1 C 79 % 1007,5 hPa 0,0 l/m 16,7 km/h (3 Bft) SO 0,00 h 0 W/m 16,3 C 16,9 C 16,7 km/h (3 Bft)
10.07.2014 03:00 19,7 C 81 % 1007,5 hPa 0,0 l/m 16,6 km/h (3 Bft) O-SO 0,00 h 0 W/m 16,3 C 16,6 C 16,6 km/h (3 Bft)
10.07.2014 04:00 19,6 C 81 % 1007,3 hPa 0,0 l/m 12,8 km/h (3 Bft) O-SO 0,00 h 0 W/m 16,3 C 17,4 C 12,8 km/h (3 Bft)
10.07.2014 05:00 19,3 C 82 % 1007,5 hPa 0,0 l/m 10,0 km/h (2 Bft) O 0,00 h 0 W/m 16,2 C 18,0 C 10,0 km/h (2 Bft)
10.07.2014 06:00 19,2 C 83 % 1007,5 hPa 0,0 l/m 10,8 km/h (2 Bft) O-NO 0,00 h 0 W/m 16,3 C 17,6 C 10,8 km/h (2 Bft)
10.07.2014 07:00 19,5 C 84 % 1007,5 hPa 0,0 l/m 11,1 km/h (2 Bft) NO 0,00 h 0 W/m 16,6 C 17,7 C 11,1 km/h (2 Bft)
10.07.2014 08:00 20,2 C 83 % 1008,0 hPa 0,0 l/m 14,1 km/h (3 Bft) O 0,00 h 0 W/m 17,1 C 17,7 C 14,1 km/h (3 Bft)
10.07.2014 09:00 21,3 C 82 % 1008,5 hPa 0,0 l/m 13,1 km/h (3 Bft) O 0,00 h 0 W/m 18,0 C 19,3 C 13,1 km/h (3 Bft)
10.07.2014 10:00 22,7 C 79 % 1008,5 hPa 0,0 l/m 10,7 km/h (2 Bft) O-NO 0,00 h 0 W/m 18,8 C 21,4 C 10,7 km/h (2 Bft)
10.07.2014 11:00 25,5 C 72 % 1009,0 hPa 0,0 l/m 10,4 km/h (2 Bft) O-NO 0,00 h 0 W/m 19,9 C 24,6 C 10,4 km/h (2 Bft)
10.07.2014 12:00 27,4 C 67 % 1009,5 hPa 0,0 l/m 10,5 km/h (2 Bft) NO 0,00 h 0 W/m 20,6 C 26,9 C 10,5 km/h (2 Bft)
10.07.2014 13:00 28,7 C 61 % 1009,5 hPa 0,0 l/m 15,6 km/h (3 Bft) O 0,00 h 0 W/m 20,4 C 27,8 C 15,6 km/h (3 Bft)
10.07.2014 14:00 29,6 C 60 % 1009,5 hPa 0,0 l/m 13,7 km/h (3 Bft) O-NO 0,00 h 0 W/m 20,9 C 28,9 C 13,7 km/h (3 Bft)
10.07.2014 15:00 29,7 C 57 % 1009,5 hPa 0,0 l/m 16,1 km/h (3 Bft) O 0,00 h 0 W/m 20,3 C 28,9 C 16,1 km/h (3 Bft)
10.07.2014 16:00 29,5 C 57 % 1009,5 hPa 0,0 l/m 18,5 km/h (3 Bft) O-NO 0,00 h 0 W/m 20,1 C 28,6 C 18,5 km/h (3 Bft)
10.07.2014 17:00 28,9 C 58 % 1009,5 hPa 0,0 l/m 15,3 km/h (3 Bft) O-NO 0,00 h 0 W/m 19,8 C 28,0 C 15,3 km/h (3 Bft)
10.07.2014 18:00 27,9 C 57 % 1009,5 hPa 0,0 l/m 14,1 km/h (3 Bft) N-NO 0,00 h 0 W/m 18,5 C 26,9 C 14,1 km/h (3 Bft)
10.07.2014 19:00 26,6 C 59 % 1009,8 hPa 0,0 l/m 15,2 km/h (3 Bft) NO 0,00 h 0 W/m 17,8 C 25,3 C 15,2 km/h (3 Bft)
10.07.2014 20:00 24,9 C 60 % 1010,7 hPa 0,0 l/m 16,8 km/h (3 Bft) O 0,00 h 0 W/m 16,6 C 23,0 C 16,8 km/h (3 Bft)
10.07.2014 21:00 23,5 C 61 % 1011,5 hPa 0,0 l/m 11,5 km/h (2 Bft) O-SO 0,00 h 0 W/m 15,6 C 22,1 C 11,5 km/h (2 Bft)
10.07.2014 22:00 22,4 C 65 % 1011,8 hPa 0,0 l/m 3,3 km/h (1 Bft) O 0,00 h 0 W/m 15,6 C 22,2 C 3,3 km/h (1 Bft)
10.07.2014 23:00 21,5 C 70 % 1012,5 hPa 0,0 l/m 3,5 km/h (1 Bft) N-NO 0,00 h 0 W/m 15,7 C 21,1 C 3,5 km/h (1 Bft)
11.07.2014 00:00 20,8 C 73 % 1012,5 hPa 0,0 l/m 5,1 km/h (1 Bft) N-NO 0,00 h 0 W/m 15,7 C 20,0 C 5,1 km/h (1 Bft)
11.07.2014 01:00 20,3 C 75 % 1012,5 hPa 0,0 l/m 11,1 km/h (2 Bft) O-SO 0,00 h 0 W/m 15,7 C 18,6 C 11,1 km/h (2 Bft)
11.07.2014 02:00 19,9 C 75 % 1012,5 hPa 0,0 l/m 10,4 km/h (2 Bft) O 0,00 h 0 W/m 15,4 C 18,5 C 10,4 km/h (2 Bft)
11.07.2014 03:00 19,4 C 76 % 1012,5 hPa 0,0 l/m 6,1 km/h (2 Bft) N-NO 0,00 h 0 W/m 15,1 C 18,9 C 6,1 km/h (2 Bft)
11.07.2014 04:00 19,0 C 78 % 1012,8 hPa 0,0 l/m 6,2 km/h (2 Bft) O-SO 0,00 h 0 W/m 15,1 C 18,5 C 6,2 km/h (2 Bft)
11.07.2014 05:00 18,6 C 80 % 1012,5 hPa 0,0 l/m 8,1 km/h (2 Bft) O 0,00 h 0 W/m 15,1 C 17,7 C 8,1 km/h (2 Bft)
11.07.2014 06:00 18,5 C 82 % 1012,5 hPa 0,0 l/m 12,0 km/h (2 Bft) O-SO 0,00 h 0 W/m 15,4 C 16,3 C 12,0 km/h (2 Bft)
11.07.2014 07:00 18,9 C 84 % 1013,0 hPa 0,0 l/m 14,3 km/h (3 Bft) O 0,00 h 0 W/m 16,2 C 16,1 C 14,3 km/h (3 Bft)
11.07.2014 08:00 19,5 C 83 % 1013,5 hPa 0,0 l/m 15,9 km/h (3 Bft) O-SO 0,00 h 0 W/m 16,6 C 16,5 C 15,9 km/h (3 Bft)
11.07.2014 09:00 20,8 C 80 % 1013,8 hPa 0,0 l/m 14,5 km/h (3 Bft) O-SO 0,00 h 0 W/m 17,1 C 18,4 C 14,5 km/h (3 Bft)
11.07.2014 10:00 22,3 C 76 % 1014,3 hPa 0,0 l/m 14,1 km/h (3 Bft) O 0,00 h 0 W/m 17,7 C 20,2 C 14,1 km/h (3 Bft)
11.07.2014 11:00 25,2 C 68 % 1014,0 hPa 0,0 l/m 13,3 km/h (3 Bft) O 0,00 h 0 W/m 18,8 C 23,8 C 13,3 km/h (3 Bft)
11.07.2014 12:00 27,1 C 61 % 1013,5 hPa 0,0 l/m 14,6 km/h (3 Bft) O-SO 0,00 h 0 W/m 18,8 C 25,9 C 14,6 km/h (3 Bft)
11.07.2014 13:00 28,0 C 53 % 1013,5 hPa 0,0 l/m 14,1 km/h (3 Bft) O 0,00 h 0 W/m 17,5 C 27,0 C 14,1 km/h (3 Bft)
11.07.2014 14:00 28,1 C 48 % 1013,5 hPa 0,0 l/m 20,0 km/h (4 Bft) O 0,00 h 0 W/m 16,1 C 26,7 C 20,0 km/h (4 Bft)
11.07.2014 15:00 28,2 C 46 % 1013,5 hPa 0,0 l/m 18,5 km/h (3 Bft) O-NO 0,00 h 0 W/m 15,3 C 26,9 C 18,5 km/h (3 Bft)
11.07.2014 16:00 27,9 C 51 % 1013,3 hPa 0,0 l/m 15,8 km/h (3 Bft) O-NO 0,00 h 0 W/m 16,8 C 26,7 C 15,8 km/h (3 Bft)
11.07.2014 17:00 27,1 C 52 % 1012,5 hPa 0,0 l/m 16,3 km/h (3 Bft) O 0,00 h 0 W/m 16,4 C 25,8 C 16,3 km/h (3 Bft)
11.07.2014 18:00 25,9 C 54 % 1012,5 hPa 0,0 l/m 16,9 km/h (3 Bft) O-SO 0,00 h 0 W/m 15,8 C 24,2 C 16,9 km/h (3 Bft)
11.07.2014 19:00 24,6 C 55 % 1013,0 hPa 0,0 l/m 12,6 km/h (3 Bft) O 0,00 h 0 W/m 15,0 C 23,4 C 12,6 km/h (3 Bft)
11.07.2014 20:00 23,3 C 58 % 1013,5 hPa 0,0 l/m 11,1 km/h (2 Bft) SO 0,00 h 0 W/m 14,5 C 22,1 C 11,1 km/h (2 Bft)
11.07.2014 21:00 22,0 C 60 % 1013,8 hPa 0,0 l/m 8,7 km/h (2 Bft) O 0,00 h 0 W/m 13,9 C 21,3 C 8,7 km/h (2 Bft)
11.07.2014 22:00 20,8 C 62 % 1014,5 hPa 0,0 l/m 1,7 km/h (1 Bft) O-SO 0,00 h 0 W/m 13,3 C 20,8 C 1,7 km/h (1 Bft)
11.07.2014 23:00 20,0 C 63 % 1014,5 hPa 0,0 l/m 3,8 km/h (1 Bft) O 0,00 h 0 W/m 12,8 C 20,0 C 3,8 km/h (1 Bft)
12.07.2014 00:00 19,6 C 63 % 1014,3 hPa 0,0 l/m 7,2 km/h (2 Bft) SO 0,00 h 0 W/m 12,4 C 19,2 C 7,2 km/h (2 Bft)
12.07.2014 01:00 19,1 C 64 % 1013,5 hPa 0,0 l/m 8,0 km/h (2 Bft) S-SO 0,00 h 0 W/m 12,0 C 18,0 C 8,0 km/h (2 Bft)
12.07.2014 02:00 18,6 C 65 % 1013,8 hPa 0,0 l/m 4,5 km/h (1 Bft) SO 0,00 h 0 W/m 11,9 C 18,6 C 4,5 km/h (1 Bft)
12.07.2014 03:00 17,9 C 68 % 1014,3 hPa 0,0 l/m 4,5 km/h (1 Bft) S-SO 0,00 h 0 W/m 11,8 C 17,8 C 4,5 km/h (1 Bft)
12.07.2014 04:00 17,5 C 71 % 1013,5 hPa 0,0 l/m 7,5 km/h (2 Bft) S 0,00 h 0 W/m 12,1 C 16,9 C 7,5 km/h (2 Bft)
12.07.2014 05:00 17,3 C 73 % 1013,5 hPa 0,0 l/m 2,0 km/h (1 Bft) S-SO 0,00 h 0 W/m 12,4 C 17,3 C 2,0 km/h (1 Bft)
12.07.2014 06:00 17,1 C 75 % 1013,5 hPa 0,0 l/m 0,0 km/h (0 Bft) N 0,00 h 0 W/m 12,5 C 17,1 C 0,0 km/h (0 Bft)
12.07.2014 07:00 17,6 C 77 % 1013,5 hPa 0,0 l/m 1,0 km/h (0 Bft) SO 0,00 h 0 W/m 13,4 C 17,6 C 1,0 km/h (0 Bft)
12.07.2014 08:00 18,2 C 77 % 1013,5 hPa 0,0 l/m 4,7 km/h (1 Bft) SO 0,00 h 0 W/m 14,0 C 17,8 C 4,7 km/h (1 Bft)
12.07.2014 09:00 19,4 C 74 % 1013,5 hPa 0,0 l/m 7,7 km/h (2 Bft) SO 0,00 h 0 W/m 14,5 C 18,4 C 7,7 km/h (2 Bft)
12.07.2014 10:00 21,0 C 65 % 1013,5 hPa 0,0 l/m 6,7 km/h (2 Bft) O-SO 0,00 h 0 W/m 14,2 C 20,8 C 6,7 km/h (2 Bft)
12.07.2014 11:00 22,8 C 61 % 1013,5 hPa 0,0 l/m 7,7 km/h (2 Bft) N-NO 0,00 h 0 W/m 14,8 C 22,4 C 7,7 km/h (2 Bft)
12.07.2014 12:00 23,6 C 59 % 1012,5 hPa 0,0 l/m 14,7 km/h (3 Bft) NO 0,00 h 0 W/m 15,0 C 21,6 C 14,7 km/h (3 Bft)
12.07.2014 13:00 23,9 C 57 % 1012,5 hPa 0,0 l/m 13,3 km/h (3 Bft) N-NO 0,00 h 0 W/m 15,0 C 22,3 C 13,3 km/h (3 Bft)
12.07.2014 14:00 23,8 C 58 % 1012,5 hPa 0,0 l/m 14,7 km/h (3 Bft) N-NO 0,00 h 0 W/m 15,0 C 21,9 C 14,7 km/h (3 Bft)
12.07.2014 15:00 23,9 C 57 % 1012,0 hPa 0,0 l/m 17,5 km/h (3 Bft) N-NO 0,00 h 0 W/m 14,8 C 21,7 C 17,5 km/h (3 Bft)
12.07.2014 16:00 23,7 C 56 % 1011,5 hPa 0,0 l/m 18,5 km/h (3 Bft) NO 0,00 h 0 W/m 14,4 C 21,2 C 18,5 km/h (3 Bft)
12.07.2014 17:00 22,9 C 59 % 1011,5 hPa 0,0 l/m 17,8 km/h (3 Bft) NO 0,00 h 0 W/m 14,3 C 20,3 C 17,8 km/h (3 Bft)
12.07.2014 18:00 21,8 C 62 % 1010,8 hPa 0,0 l/m 14,3 km/h (3 Bft) NO 0,00 h 0 W/m 14,2 C 19,6 C 14,3 km/h (3 Bft)
12.07.2014 19:00 21,7 C 61 % 1010,5 hPa 0,0 l/m 14,5 km/h (3 Bft) NO 0,00 h 0 W/m 13,8 C 19,5 C 14,5 km/h (3 Bft)
12.07.2014 20:00 20,9 C 64 % 1010,5 hPa 0,0 l/m 14,3 km/h (3 Bft) N-NO 0,00 h 0 W/m 13,7 C 18,5 C 14,3 km/h (3 Bft)
12.07.2014 21:00 20,1 C 68 % 1010,5 hPa 0,0 l/m 11,5 km/h (2 Bft) N-NO 0,00 h 0 W/m 14,0 C 18,3 C 11,5 km/h (2 Bft)
12.07.2014 22:00 19,5 C 71 % 1010,5 hPa 0,0 l/m 5,0 km/h (1 Bft) N-NO 0,00 h 0 W/m 14,1 C 19,0 C 5,0 km/h (1 Bft)
12.07.2014 23:00 18,9 C 71 % 1010,5 hPa 0,0 l/m 0,1 km/h (0 Bft) N 0,00 h 0 W/m 13,4 C 18,9 C 0,1 km/h (0 Bft)
13.07.2014 00:00 18,5 C 69 % 1010,0 hPa 0,0 l/m 0,0 km/h (0 Bft) N 0,00 h 0 W/m 12,5 C 18,5 C 0,0 km/h (0 Bft)
13.07.2014 01:00 18,4 C 71 % 1009,5 hPa 0,0 l/m 0,4 km/h (0 Bft) S-SW 0,00 h 0 W/m 12,9 C 18,4 C 0,4 km/h (0 Bft)
13.07.2014 02:00 17,7 C 71 % 1008,8 hPa 0,0 l/m 0,0 km/h (0 Bft) N 0,00 h 0 W/m 12,4 C 17,7 C 0,0 km/h (0 Bft)
13.07.2014 03:00 17,4 C 72 % 1008,5 hPa 0,0 l/m 0,1 km/h (0 Bft) N 0,00 h 0 W/m 12,3 C 17,4 C 0,1 km/h (0 Bft)
13.07.2014 04:00 17,2 C 73 % 1007,5 hPa 0,0 l/m 1,1 km/h (1 Bft) S-SW 0,00 h 0 W/m 12,3 C 17,2 C 1,1 km/h (1 Bft)
13.07.2014 05:00 17,1 C 73 % 1007,5 hPa 0,0 l/m 2,0 km/h (1 Bft) S-SW 0,00 h 0 W/m 12,3 C 17,1 C 2,0 km/h (1 Bft)
13.07.2014 06:00 17,1 C 75 % 1007,3 hPa 0,0 l/m 0,0 km/h (0 Bft) N 0,00 h 0 W/m 12,6 C 17,1 C 0,0 km/h (0 Bft)
13.07.2014 07:00 17,5 C 77 % 1006,5 hPa 0,0 l/m 1,5 km/h (1 Bft) S-SW 0,00 h 0 W/m 13,4 C 17,5 C 1,5 km/h (1 Bft)
13.07.2014 08:00 18,4 C 78 % 1006,3 hPa 0,0 l/m 5,0 km/h (1 Bft) SW 0,00 h 0 W/m 14,4 C 18,1 C 5,0 km/h (1 Bft)
13.07.2014 09:00 19,5 C 78 % 1005,5 hPa 0,0 l/m 8,4 km/h (2 Bft) W 0,00 h 0 W/m 15,5 C 18,6 C 8,4 km/h (2 Bft)
13.07.2014 10:00 21,0 C 72 % 1005,5 hPa 0,0 l/m 15,1 km/h (3 Bft) W 0,00 h 0 W/m 15,7 C 18,5 C 15,1 km/h (3 Bft)
13.07.2014 11:00 21,4 C 66 % 1005,3 hPa 0,0 l/m 17,7 km/h (3 Bft) W 0,00 h 0 W/m 14,8 C 18,4 C 17,7 km/h (3 Bft)
13.07.2014 12:00 22,0 C 67 % 1005,3 hPa 0,0 l/m 14,2 km/h (3 Bft) W-NW 0,00 h 0 W/m 15,5 C 19,9 C 14,2 km/h (3 Bft)
13.07.2014 13:00 21,4 C 72 % 1004,5 hPa 0,0 l/m 13,1 km/h (3 Bft) W-SW 0,00 h 0 W/m 16,0 C 19,4 C 13,1 km/h (3 Bft)
13.07.2014 14:00 21,5 C 75 % 1004,5 hPa 0,0 l/m 15,9 km/h (3 Bft) NW 0,00 h 0 W/m 16,9 C 18,9 C 15,9 km/h (3 Bft)
13.07.2014 15:00 20,7 C 75 % 1004,3 hPa 0,0 l/m 22,1 km/h (4 Bft) NW 0,00 h 0 W/m 16,1 C 16,8 C 22,1 km/h (4 Bft)
13.07.2014 16:00 20,2 C 76 % 1004,0 hPa 0,0 l/m 23,2 km/h (4 Bft) NW 0,00 h 0 W/m 15,7 C 15,9 C 23,2 km/h (4 Bft)
13.07.2014 17:00 19,6 C 78 % 1003,5 hPa 0,0 l/m 25,4 km/h (4 Bft) NW 0,00 h 0 W/m 15,6 C 14,8 C 25,4 km/h (4 Bft)
13.07.2014 18:00 19,4 C 76 % 1003,5 hPa 0,0 l/m 24,3 km/h (4 Bft) NW 0,00 h 0 W/m 15,1 C 14,7 C 24,3 km/h (4 Bft)
13.07.2014 19:00 19,2 C 78 % 1003,5 hPa 0,0 l/m 21,4 km/h (4 Bft) NW 0,00 h 0 W/m 15,2 C 14,9 C 21,4 km/h (4 Bft)
13.07.2014 20:00 18,9 C 80 % 1003,5 hPa 0,0 l/m 17,9 km/h (3 Bft) NW 0,00 h 0 W/m 15,3 C 15,4 C 17,9 km/h (3 Bft)
13.07.2014 21:00 18,5 C 82 % 1003,5 hPa 0,0 l/m 14,7 km/h (3 Bft) NW 0,00 h 0 W/m 15,4 C 15,6 C 14,7 km/h (3 Bft)
13.07.2014 22:00 18,1 C 84 % 1003,5 hPa 0,3 l/m 12,2 km/h (2 Bft) W-NW 0,00 h 0 W/m 15,4 C 15,9 C 12,2 km/h (2 Bft)
13.07.2014 23:00 18,0 C 86 % 1003,5 hPa 0,0 l/m 15,1 km/h (3 Bft) NW 0,00 h 0 W/m 15,6 C 14,9 C 15,1 km/h (3 Bft)
Min-Datum _ 08.07.14 11.07.14 09.07.14 - 09.07.14 - - - 12.07.14 08.07.14 09.07.14
_ Min-Zeit 13:45 15:00 14:45 - 00:30 - - - 03:00 15:00 00:30
Minimum _ 15,9 C 44 % 1002,5 hPa - 0,0 km/h (0 Bft) - - - 11,6 C 9,4 C 0,0 km/h (0 Bft)
Max-Datum _ 10.07.14 09.07.14 07.07.14 07.07.14 07.07.14 - 07.07.14 07.07.14 09.07.14 10.07.14 07.07.14
_ Max-Zeit 14:30 01:45 11:45 00:15 00:00 - 00:00 00:00 15:15 14:30 00:00
Maximum _ 29,8 C 95 % 1016,5 hPa 9,0 l/m 32,0 km/h
S-SW (5 Bft)
- 0,00 h 0 W/m 23,3 C 29,3 C 32,0 km/h
S-SW (5 Bft)
Durchschnitt _ 20,9 C 74 % 1009,7 hPa #34,8 l/m 12,1 km/h (2 Bft) NO #0 min. 0 W/m 16,0 C 19,1 C 12,1 km/h (2 Bft)
copyright by Holger Just